Time;durP1;ratioP1;P1;durP2;ratioP2;P2;SDS_P1;SDS_P2;PMS_P1;PMS_P2;Temp;Humidity;BMP_temperature;BMP_pressure;BME280_temperature;BME280_humidity;BME280_pressure;Samples;Min_cycle;Max_cycle;Signal;HPM_P1;HPM_P2
2022/09/21 00:01:32;;;;;;;3.33;1.55;;;11.00;99.90;;;11.06;100.00;101974.56;5143152;28;20049;-68
2022/09/21 00:04:05;;;;;;;2.67;1.50;;;11.00;99.90;;;11.05;100.00;101969.28;5142743;28;20039;-68
2022/09/21 00:06:37;;;;;;;3.00;1.52;;;11.00;99.90;;;11.01;100.00;101976.03;5142858;28;20050;-69
2022/09/21 00:09:09;;;;;;;2.60;1.52;;;11.00;99.90;;;10.99;100.00;101972.47;5143112;28;20380;-68
2022/09/21 00:11:42;;;;;;;4.00;1.70;;;11.00;99.90;;;10.96;100.00;101969.72;5143606;28;20134;-68
2022/09/21 00:14:14;;;;;;;2.50;1.48;;;10.90;99.90;;;10.94;100.00;101978.25;5146873;28;20046;-68
2022/09/21 00:16:46;;;;;;;3.33;1.60;;;10.90;99.90;;;10.93;100.00;101966.03;5146701;28;20050;-68
2022/09/21 00:19:20;;;;;;;3.08;2.00;;;10.90;99.90;;;10.91;100.00;101958.13;5146513;28;20069;-69
2022/09/21 00:21:54;;;;;;;3.30;1.88;;;10.90;99.90;;;10.88;100.00;101958.84;5146754;28;20049;-68
2022/09/21 00:24:27;;;;;;;4.63;2.08;;;10.90;99.90;;;10.86;100.00;101965.72;5146871;28;20054;-68
2022/09/21 00:26:59;;;;;;;2.70;1.45;;;10.80;99.90;;;10.82;100.00;101963.78;5143536;28;20059;-69
2022/09/21 00:29:31;;;;;;;3.50;1.65;;;10.80;99.90;;;10.78;100.00;101974.84;5145047;28;20038;-69
2022/09/21 00:32:03;;;;;;;2.25;1.70;;;10.80;99.90;;;10.75;100.00;101969.47;5146345;28;20133;-68
2022/09/21 00:34:36;;;;;;;2.30;1.67;;;10.70;99.90;;;10.73;100.00;101975.41;5146520;28;20058;-69
2022/09/21 00:37:09;;;;;;;2.47;1.50;;;10.70;99.90;;;10.71;100.00;101975.34;5146568;28;20053;-68
2022/09/21 00:39:41;;;;;;;2.38;1.48;;;10.70;99.90;;;10.69;100.00;101970.84;5145684;28;20047;-68
2022/09/21 00:42:17;;;;;;;3.03;1.80;;;10.70;99.90;;;10.67;100.00;101980.31;5146756;28;20058;-69
2022/09/21 00:44:49;;;;;;;2.83;1.80;;;10.60;99.90;;;10.66;100.00;101973.31;5146030;28;20046;-69
2022/09/21 00:47:27;;;;;;;3.90;2.00;;;10.60;99.90;;;10.67;100.00;101972.47;5146111;28;20045;-69
2022/09/21 00:50:04;;;;;;;4.32;1.65;;;10.60;99.90;;;10.64;100.00;101981.06;5145472;28;20407;-68
2022/09/21 00:52:40;;;;;;;3.45;1.83;;;10.60;99.90;;;10.60;100.00;101982.59;5146044;28;20054;-69
2022/09/21 00:55:18;;;;;;;2.40;1.60;;;10.60;99.90;;;10.57;100.00;101986.75;5146369;28;20047;-69
2022/09/21 00:57:58;;;;;;;2.55;2.00;;;10.60;99.90;;;10.53;100.00;101984.78;5146190;28;20046;-69
2022/09/21 01:00:30;;;;;;;3.72;1.98;;;10.50;99.90;;;10.49;100.00;101988.94;5145563;28;20072;-69
2022/09/21 01:03:04;;;;;;;3.35;2.13;;;10.50;99.90;;;10.47;100.00;101989.69;5146128;28;20054;-68
2022/09/21 01:05:37;;;;;;;4.82;2.22;;;10.50;99.90;;;10.46;100.00;101987.88;5146326;28;20503;-69
2022/09/21 01:08:12;;;;;;;3.60;1.90;;;10.40;99.90;;;10.43;100.00;101985.09;5145797;28;20043;-69
2022/09/21 01:10:58;;;;;;;;;;;10.40;99.90;;;10.42;100.00;101991.13;5145929;28;20508;-69
2022/09/21 01:13:44;;;;;;;2.75;1.77;;;10.40;99.90;;;10.42;100.00;101981.59;5146087;28;19922;-68
2022/09/21 01:16:24;;;;;;;3.08;1.73;;;10.40;99.90;;;10.41;100.00;101985.03;5145851;28;20495;-68
2022/09/21 01:19:21;;;;;;;2.88;1.73;;;10.50;99.90;;;10.39;100.00;101980.56;5144782;28;20042;-68
2022/09/21 01:22:06;;;;;;;3.50;1.83;;;10.40;99.90;;;10.35;100.00;101984.69;5144681;28;20415;-69
2022/09/21 01:25:04;;;;;;;3.97;1.90;;;10.40;99.90;;;10.36;100.00;101977.75;5145693;28;20042;-68
2022/09/21 01:28:05;;;;;;;2.35;1.52;;;10.40;99.90;;;10.36;100.00;101975.16;5144942;28;20035;-68
2022/09/21 01:30:43;;;;;;;3.67;2.10;;;10.40;99.90;;;10.32;100.00;101980.22;5144928;28;20046;-68
2022/09/21 01:33:23;;;;;;;3.20;2.20;;;10.30;99.90;;;10.29;100.00;101984.34;5145365;28;20403;-69
2022/09/21 01:36:00;;;;;;;3.22;2.00;;;10.30;99.90;;;10.26;100.00;101984.19;5145004;28;20062;-69
2022/09/21 01:38:36;;;;;;;3.15;1.88;;;10.30;99.90;;;10.25;100.00;101998.03;5144761;28;20058;-68
2022/09/21 01:41:11;;;;;;;2.47;1.95;;;10.20;99.90;;;10.25;100.00;101992.84;5145238;28;20042;-69
2022/09/21 01:43:49;;;;;;;3.30;1.98;;;10.20;99.90;;;10.25;100.00;101993.72;5144631;28;20055;-68
2022/09/21 01:46:28;;;;;;;2.83;1.52;;;10.20;99.90;;;10.25;100.00;101985.00;5145311;28;20372;-68
2022/09/21 01:49:07;;;;;;;3.42;1.92;;;10.30;99.90;;;10.23;100.00;101991.81;5144778;28;20507;-68
2022/09/21 01:51:45;;;;;;;3.65;2.38;;;10.20;99.90;;;10.21;100.00;101994.31;5145057;28;20042;-68
2022/09/21 01:54:21;;;;;;;2.42;1.60;;;10.20;99.90;;;10.21;100.00;101989.09;5144872;28;20047;-68
2022/09/21 01:57:00;;;;;;;2.80;1.58;;;10.20;99.90;;;10.19;100.00;101997.66;5145107;28;20054;-69
2022/09/21 01:59:42;;;;;;;3.83;2.08;;;10.20;99.90;;;10.19;100.00;101997.66;5144274;28;20122;-69
2022/09/21 02:02:22;;;;;;;2.33;1.67;;;10.20;99.90;;;10.17;100.00;101999.28;5145498;28;20054;-65
2022/09/21 02:04:55;;;;;;;3.10;1.92;;;10.20;99.90;;;10.16;100.00;101997.47;5144343;28;20053;-69
2022/09/21 02:07:27;;;;;;;3.75;1.90;;;10.10;99.90;;;10.14;100.00;101996.50;5144923;28;20051;-69
2022/09/21 02:10:01;;;;;;;3.85;2.17;;;10.20;99.90;;;10.13;100.00;102002.53;5143382;28;20073;-69
2022/09/21 02:12:34;;;;;;;5.68;2.40;;;10.10;99.90;;;10.11;100.00;101998.97;5144877;28;20471;-68
2022/09/21 02:15:07;;;;;;;4.55;2.13;;;10.10;99.90;;;10.10;100.00;101998.03;5144363;28;20050;-68
2022/09/21 02:17:52;;;;;;;3.58;2.10;;;10.10;99.90;;;10.10;100.00;102004.94;5144496;28;20049;-65
2022/09/21 02:20:30;;;;;;;3.67;1.73;;;10.10;99.90;;;10.11;100.00;102002.47;5144400;28;20046;-66
2022/09/21 02:23:11;;;;;;;3.30;2.03;;;10.10;99.90;;;10.08;100.00;101999.66;5144680;28;20054;-65
2022/09/21 02:25:50;;;;;;;4.75;2.42;;;10.10;99.90;;;10.10;100.00;101999.75;5144896;28;20050;-64
2022/09/21 02:28:36;;;;;;;3.58;2.00;;;10.10;99.90;;;10.12;100.00;102000.75;5145016;28;20047;-67
2022/09/21 02:31:16;;;;;;;3.35;2.08;;;10.10;99.90;;;10.12;100.00;101990.31;5144213;28;20046;-70
2022/09/21 02:34:01;;;;;;;4.40;2.30;;;10.10;99.90;;;10.10;100.00;101989.31;5140796;28;20480;-68
2022/09/21 02:36:43;;;;;;;3.20;1.75;;;10.10;99.90;;;10.07;100.00;101993.56;5128111;28;20102;-68
2022/09/21 02:39:21;;;;;;;3.15;2.15;;;10.10;99.90;;;10.03;100.00;101993.28;5129584;28;20047;-68
2022/09/21 02:42:05;;;;;;;3.30;2.10;;;10.10;99.90;;;10.00;100.00;101991.44;5130770;28;20054;-68
2022/09/21 02:44:42;;;;;;;3.63;2.42;;;10.00;99.90;;;9.97;100.00;101991.25;5142980;28;20547;-68
2022/09/21 02:47:20;;;;;;;3.33;2.13;;;10.00;99.90;;;9.94;100.00;101987.59;5144014;28;20125;-69
2022/09/21 02:49:59;;;;;;;3.78;2.28;;;9.90;99.90;;;9.88;100.00;101990.72;5142328;28;20055;-68
2022/09/21 02:52:34;;;;;;;3.42;2.75;;;9.90;99.90;;;9.81;100.00;101986.00;5143603;28;20051;-68
2022/09/21 02:55:08;;;;;;;3.72;2.05;;;9.90;99.90;;;9.79;100.00;101980.69;5143761;28;20041;-68
2022/09/21 02:57:41;;;;;;;4.47;2.10;;;9.80;99.90;;;9.77;100.00;101991.81;5143888;28;20118;-69
2022/09/21 03:00:15;;;;;;;3.67;2.40;;;9.80;99.90;;;9.74;100.00;101986.47;5141680;28;20057;-68
2022/09/21 03:02:47;;;;;;;3.25;2.25;;;9.80;99.90;;;9.68;100.00;101984.41;5143262;28;20047;-68
2022/09/21 03:05:23;;;;;;;4.18;2.30;;;9.70;99.90;;;9.63;100.00;101982.34;5143011;28;20050;-68
2022/09/21 03:07:55;;;;;;;4.30;2.30;;;9.70;99.90;;;9.59;100.00;101981.28;5143580;28;20061;-68
2022/09/21 03:10:28;;;;;;;4.60;2.33;;;9.60;99.90;;;9.56;100.00;101980.19;5142953;28;20546;-69
2022/09/21 03:13:00;;;;;;;3.08;2.42;;;9.60;99.90;;;9.52;100.00;101980.03;5143169;28;20047;-69
2022/09/21 03:15:32;;;;;;;6.55;2.55;;;9.60;99.90;;;9.50;100.00;101981.63;5143517;28;20090;-68
2022/09/21 03:18:06;;;;;;;3.97;2.38;;;9.50;99.90;;;9.49;100.00;101991.97;5135956;28;20496;-68
2022/09/21 03:20:45;;;;;;;3.80;2.30;;;9.50;99.90;;;9.46;100.00;101978.78;5134480;28;20129;-68
2022/09/21 03:23:18;;;;;;;3.72;2.40;;;9.50;99.90;;;9.42;100.00;101988.09;5143207;28;20038;-68
2022/09/21 03:25:53;;;;;;;5.75;2.88;;;9.50;99.90;;;9.39;100.00;101989.59;5143160;28;20045;-68
2022/09/21 03:28:25;;;;;;;4.47;2.80;;;9.50;99.90;;;9.38;100.00;101995.63;5142732;28;20055;-68
2022/09/21 03:30:57;;;;;;;4.47;2.85;;;9.40;99.90;;;9.36;100.00;102005.06;5142840;28;20054;-69
2022/09/21 03:33:31;;;;;;;5.65;2.55;;;9.40;99.90;;;9.35;100.00;102004.16;5143518;28;20050;-69
2022/09/21 03:36:04;;;;;;;4.32;2.53;;;9.40;99.90;;;9.36;100.00;102000.75;5143173;28;20563;-68
2022/09/21 03:38:37;;;;;;;2.83;2.13;;;9.40;99.90;;;9.35;100.00;102001.56;5142524;28;20054;-68
2022/09/21 03:41:09;;;;;;;3.83;2.20;;;9.40;99.90;;;9.32;100.00;102006.56;5141514;28;20125;-68
2022/09/21 03:43:41;;;;;;;3.70;2.25;;;9.40;99.90;;;9.27;100.00;102000.22;5143239;28;20114;-68
2022/09/21 03:46:13;;;;;;;5.03;2.90;;;9.30;99.90;;;9.28;100.00;102003.72;5143161;28;20043;-68
2022/09/21 03:48:48;;;;;;;4.65;2.58;;;9.30;99.90;;;9.29;100.00;102005.50;5146219;28;20448;-68
2022/09/21 03:51:21;;;;;;;5.53;2.50;;;9.30;99.90;;;9.24;100.00;102007.81;5147002;28;20343;-68
2022/09/21 03:53:54;;;;;;;3.20;2.22;;;9.30;99.90;;;9.22;100.00;102006.84;5146995;28;20051;-68
2022/09/21 03:56:26;;;;;;;4.15;2.13;;;9.30;99.90;;;9.21;100.00;102002.47;5147003;28;20499;-68
2022/09/21 03:58:59;;;;;;;4.75;2.42;;;9.30;99.90;;;9.22;100.00;101999.03;5146400;28;20125;-69
2022/09/21 04:01:32;;;;;;;3.92;2.03;;;9.30;99.90;;;9.17;100.00;102001.38;5145423;28;20070;-68
2022/09/21 04:04:05;;;;;;;4.05;2.55;;;9.20;99.90;;;9.14;100.00;101997.69;5146262;28;20053;-69
2022/09/21 04:06:38;;;;;;;5.32;2.45;;;9.20;99.90;;;9.10;100.00;102003.50;5146973;28;20039;-68
2022/09/21 04:09:10;;;;;;;2.60;2.00;;;9.20;99.90;;;9.07;100.00;102003.34;5146591;28;20058;-68
2022/09/21 04:11:42;;;;;;;3.95;2.17;;;9.10;99.90;;;9.06;100.00;102001.53;5147083;28;20058;-69
2022/09/21 04:14:14;;;;;;;3.97;2.13;;;9.10;99.90;;;9.06;100.00;102001.53;5147094;28;20054;-68
2022/09/21 04:16:48;;;;;;;3.13;2.10;;;9.10;99.90;;;9.06;100.00;102001.53;5146999;28;20408;-68
2022/09/21 04:19:21;;;;;;;5.10;2.22;;;9.10;99.90;;;9.06;100.00;101996.31;5146605;28;20406;-68
2022/09/21 04:21:55;;;;;;;3.65;2.17;;;9.10;99.90;;;9.09;100.00;102001.72;5146840;28;20550;-68
2022/09/21 04:24:27;;;;;;;3.35;2.20;;;9.10;99.90;;;9.05;100.00;102005.84;5146773;28;20054;-68
2022/09/21 04:26:59;;;;;;;3.75;2.45;;;9.10;99.90;;;9.00;100.00;102002.09;5146715;28;20504;-68
2022/09/21 04:29:31;;;;;;;2.67;1.88;;;9.10;99.90;;;8.95;100.00;102009.59;5146385;28;20047;-68
2022/09/21 04:32:03;;;;;;;4.85;2.22;;;9.10;99.90;;;8.91;100.00;102023.22;5146523;28;20047;-69
2022/09/21 04:34:38;;;;;;;3.15;2.15;;;9.00;99.90;;;8.88;100.00;102009.13;5146584;28;20130;-68
2022/09/21 04:37:12;;;;;;;5.70;2.33;;;9.00;99.90;;;8.85;100.00;102017.63;5146464;28;20055;-68
2022/09/21 04:39:44;;;;;;;4.13;2.72;;;8.90;99.90;;;8.81;100.00;102015.66;5146222;28;20412;-68
2022/09/21 04:42:16;;;;;;;3.80;2.58;;;8.90;99.90;;;8.81;100.00;102015.66;5144945;28;20064;-68
2022/09/21 04:44:48;;;;;;;3.60;2.10;;;8.90;99.90;;;8.81;100.00;102026.06;5144718;28;20547;-68
2022/09/21 04:47:22;;;;;;;3.95;2.08;;;8.90;99.90;;;8.77;100.00;102018.88;5145773;28;20058;-68
2022/09/21 04:49:55;;;;;;;3.80;2.13;;;8.80;99.90;;;8.76;100.00;102021.38;5145650;28;20039;-68
2022/09/21 04:52:29;;;;;;;3.60;2.20;;;8.80;99.90;;;8.75;100.00;102023.09;5145925;28;20488;-69
2022/09/21 04:55:01;;;;;;;3.28;2.13;;;8.80;99.90;;;8.73;100.00;102022.06;5146033;28;20049;-68
2022/09/21 04:57:34;;;;;;;2.75;1.90;;;8.80;99.90;;;8.73;100.00;102026.38;5145348;28;20047;-68
2022/09/21 05:00:08;;;;;;;4.13;1.92;;;8.80;99.90;;;8.72;100.00;102028.09;5145219;28;20054;-68
2022/09/21 05:02:40;;;;;;;3.33;2.10;;;8.80;99.90;;;8.70;100.00;102022.78;5145867;28;20046;-69
2022/09/21 05:05:12;;;;;;;2.67;1.88;;;8.80;99.90;;;8.69;100.00;102034.00;5145365;28;20516;-67
2022/09/21 05:07:46;;;;;;;3.60;1.80;;;8.80;99.90;;;8.69;100.00;102035.72;5145697;28;20054;-68
2022/09/21 05:10:17;;;;;;;3.60;1.75;;;8.80;99.90;;;8.69;100.00;102035.72;5145078;28;20038;-68
2022/09/21 05:12:51;;;;;;;2.42;1.65;;;8.80;99.90;;;8.67;100.00;102040.81;5145603;28;20047;-67
2022/09/21 05:15:23;;;;;;;3.22;1.60;;;8.80;99.90;;;8.67;100.00;102042.50;5143667;28;20138;-68
2022/09/21 05:17:55;;;;;;;3.53;1.92;;;8.70;99.90;;;8.65;100.00;102038.91;5145467;28;20051;-68
2022/09/21 05:20:27;;;;;;;2.42;1.70;;;8.70;99.90;;;8.64;100.00;102043.22;5145001;28;20384;-68
2022/09/21 05:23:02;;;;;;;2.50;1.77;;;8.70;99.90;;;8.62;100.00;102043.94;5145267;28;20061;-69
2022/09/21 05:25:34;;;;;;;2.63;1.70;;;8.70;99.90;;;8.62;100.00;102047.44;5145283;28;20523;-68
2022/09/21 05:28:08;;;;;;;2.67;1.63;;;8.70;99.90;;;8.62;100.00;102052.63;5144060;28;20066;-68
2022/09/21 05:30:40;;;;;;;2.17;1.52;;;8.70;99.90;;;8.62;100.00;102059.53;5144690;28;20046;-68
2022/09/21 05:33:19;;;;;;;1.98;1.60;;;8.70;99.90;;;8.62;100.00;102054.31;5145053;28;20042;-66
2022/09/21 05:36:02;;;;;;;3.42;2.03;;;8.70;99.90;;;8.58;100.00;102057.53;5144971;28;20543;-68
2022/09/21 05:38:37;;;;;;;2.55;1.65;;;8.70;99.90;;;8.55;100.00;102065.16;5144635;28;20050;-67
2022/09/21 05:41:10;;;;;;;2.70;1.80;;;8.60;99.90;;;8.51;100.00;102055.34;5144774;28;20035;-67
2022/09/21 05:43:44;;;;;;;3.22;1.92;;;8.60;99.90;;;8.50;100.00;102063.94;5144904;28;20051;-67
2022/09/21 05:46:29;;;;;;;2.67;1.90;;;8.60;99.90;;;8.50;100.00;102063.94;5145186;28;20047;-66
2022/09/21 05:49:07;;;;;;;3.47;2.20;;;8.60;99.90;;;8.51;100.00;102066.63;5144347;28;20054;-67
2022/09/21 05:51:47;;;;;;;2.55;1.73;;;8.60;99.90;;;8.51;100.00;102066.63;5144916;28;20047;-67
2022/09/21 05:54:28;;;;;;;5.43;2.63;;;8.60;99.90;;;8.57;100.00;102071.34;5144416;28;20061;-67
2022/09/21 05:57:09;;;;;;;3.45;2.20;;;8.60;99.90;;;8.59;100.00;102074.91;5144698;28;20064;-67
2022/09/21 05:59:58;;;;;;;5.25;3.28;;;8.70;99.90;;;8.60;100.00;102077.59;5144112;28;20046;-68
2022/09/21 06:02:51;;;;;;;5.82;2.55;;;8.70;99.90;;;8.61;100.00;102078.53;5144338;28;20055;-67
2022/09/21 06:05:24;;;;;;;4.65;2.35;;;8.80;99.90;;;8.64;100.00;102073.50;5144402;28;20158;-55
2022/09/21 06:07:56;;;;;;;6.20;2.38;;;8.80;99.90;;;8.69;100.00;102077.31;5143462;28;20051;-55
2022/09/21 06:13:27;;;;;;;4.63;2.35;;;8.80;99.90;;;8.89;100.00;102091.53;5145761;28;20059;-55
2022/09/21 06:16:02;;;;;;;3.42;2.33;;;9.00;99.90;;;8.99;100.00;102093.91;5157723;28;20407;-55
2022/09/21 06:18:39;;;;;;;3.70;2.22;;;9.10;99.90;;;9.06;100.00;102089.97;5143210;28;20574;-54
2022/09/21 06:21:11;;;;;;;4.43;2.40;;;9.10;99.90;;;9.07;100.00;102094.41;5144242;28;20492;-55
2022/09/21 06:23:43;;;;;;;4.53;2.92;;;9.20;99.90;;;9.09;100.00;102096.28;5143030;28;20511;-56
2022/09/21 06:26:16;;;;;;;4.45;2.60;;;9.20;99.90;;;9.14;100.00;102099.16;5144284;28;20046;-55
2022/09/21 06:28:48;;;;;;;4.70;2.40;;;9.20;99.90;;;9.15;100.00;102106.16;5143975;28;20051;-57
2022/09/21 06:31:20;;;;;;;5.10;2.67;;;9.30;99.90;;;9.20;100.00;102107.34;5143902;28;20496;-55
2022/09/21 06:33:52;;;;;;;5.30;2.78;;;9.30;99.90;;;9.21;100.00;102107.44;5143883;28;20043;-55
2022/09/21 06:36:24;;;;;;;5.72;2.85;;;9.30;99.90;;;9.29;100.00;102107.88;5143888;28;20046;-57
2022/09/21 06:38:56;;;;;;;5.55;2.55;;;9.30;99.90;;;9.33;100.00;102107.28;5143571;28;20050;-55
2022/09/21 06:41:30;;;;;;;7.68;3.28;;;9.40;99.90;;;9.47;100.00;102103.81;5143777;28;20061;-55
2022/09/21 06:44:05;;;;;;;5.95;2.92;;;9.50;99.90;;;9.55;100.00;102098.16;5142372;28;20531;-56
2022/09/21 06:46:37;;;;;;;6.65;3.08;;;9.60;99.90;;;9.55;100.00;102103.34;5143680;28;20492;-55
2022/09/21 06:49:09;;;;;;;5.95;3.15;;;9.60;99.90;;;9.46;100.00;102104.63;5143319;28;20055;-57
2022/09/21 06:51:41;;;;;;;12.18;4.70;;;9.60;99.90;;;9.44;100.00;102094.91;5143660;28;20042;-56
2022/09/21 06:54:14;;;;;;;9.70;4.38;;;9.60;99.90;;;9.42;100.00;102106.94;5143616;28;20057;-56
2022/09/21 06:56:47;;;;;;;9.25;4.15;;;9.60;99.90;;;9.44;100.00;102103.59;5143854;28;20046;-54
2022/09/21 06:59:19;;;;;;;6.50;3.60;;;9.60;99.90;;;9.48;100.00;102102.09;5143635;28;20043;-56
2022/09/21 07:01:54;;;;;;;6.13;3.35;;;9.60;99.90;;;9.58;100.00;102100.91;5143497;28;20050;-57
2022/09/21 07:04:28;;;;;;;8.43;3.65;;;9.70;99.90;;;9.88;100.00;102102.72;5143396;28;20062;-56
2022/09/21 07:07:00;;;;;;;10.00;4.80;;;9.90;99.90;;;10.12;100.00;102097.16;5143226;28;20038;-55
2022/09/21 07:09:32;;;;;;;6.13;3.35;;;10.10;99.90;;;10.16;100.00;102096.50;5143012;28;20515;-56
2022/09/21 07:12:07;;;;;;;6.10;3.20;;;10.30;99.90;;;10.15;100.00;102105.13;5143202;28;20070;-55
2022/09/21 07:14:39;;;;;;;7.20;3.42;;;10.30;99.90;;;10.16;100.00;102100.00;5143446;28;20065;-55
2022/09/21 07:17:12;;;;;;;7.18;3.50;;;10.30;99.90;;;10.20;100.00;102103.69;5143129;28;20043;-56
2022/09/21 07:19:44;;;;;;;8.15;4.10;;;10.30;99.90;;;10.31;100.00;102106.13;5142764;28;20082;-55
2022/09/21 07:22:16;;;;;;;14.00;5.93;;;10.30;99.90;;;10.55;100.00;102109.19;5143043;28;20068;-57
2022/09/21 07:24:48;;;;;;;9.25;4.35;;;10.60;99.90;;;10.85;100.00;102110.00;5143775;28;20042;-56
2022/09/21 07:27:22;;;;;;;12.20;6.22;;;10.80;99.90;;;11.15;100.00;102109.88;5143007;28;20050;-57
2022/09/21 07:29:54;;;;;;;14.52;6.28;;;11.00;99.90;;;11.40;100.00;102107.72;5142821;28;20392;-56
2022/09/21 07:32:26;;;;;;;10.00;5.07;;;11.30;99.90;;;11.61;100.00;102112.28;5143390;28;20139;-57
2022/09/21 07:34:58;;;;;;;8.52;4.15;;;11.50;99.90;;;11.89;100.00;102105.03;5143388;28;20047;-55
2022/09/21 07:37:31;;;;;;;9.25;4.65;;;11.80;99.90;;;11.88;100.00;102110.19;5143110;28;20047;-57
2022/09/21 07:40:05;;;;;;;8.77;3.83;;;11.80;99.90;;;11.74;100.00;102113.81;5142548;28;20046;-57
2022/09/21 07:42:38;;;;;;;6.82;3.75;;;11.70;99.90;;;11.59;100.00;102113.91;5142826;28;20512;-57
2022/09/21 07:45:11;;;;;;;9.85;4.35;;;11.60;99.90;;;11.45;100.00;102113.19;5143070;28;20043;-55
2022/09/21 07:47:43;;;;;;;6.55;3.65;;;11.50;99.90;;;11.37;100.00;102122.34;5142765;28;20046;-56
2022/09/21 07:50:15;;;;;;;6.82;3.97;;;11.40;99.90;;;11.35;100.00;102116.16;5142391;28;20054;-56
2022/09/21 07:52:47;;;;;;;8.73;4.50;;;11.30;99.90;;;11.34;100.00;102114.31;5142609;28;20057;-56
2022/09/21 07:55:19;;;;;;;9.40;4.72;;;11.30;99.90;;;11.40;100.00;102117.25;5133682;28;20043;-55
2022/09/21 08:00:42;;;;;;;8.68;5.07;;;11.40;99.90;;;11.76;100.00;102113.06;5137176;28;20071;-56
2022/09/21 08:03:14;;;;;;;9.95;5.10;;;11.60;99.90;;;11.87;100.00;102114.53;5122942;28;20054;-56
2022/09/21 08:05:46;;;;;;;8.27;4.60;;;11.70;99.90;;;11.90;100.00;102121.63;5125937;28;20049;-56
2022/09/21 08:08:19;;;;;;;9.45;4.97;;;11.70;99.90;;;11.91;100.00;102108.63;5133085;28;20518;-56
2022/09/21 08:10:53;;;;;;;8.90;4.70;;;11.70;99.90;;;11.95;100.00;102114.91;5131638;28;20047;-56
2022/09/21 08:13:26;;;;;;;9.88;4.95;;;11.70;99.90;;;12.17;100.00;102122.09;5140428;28;20057;-57
2022/09/21 08:15:59;;;;;;;8.75;5.18;;;12.00;99.90;;;12.32;100.00;102114.97;5136748;28;20055;-57
2022/09/21 08:18:31;;;;;;;11.95;5.70;;;12.10;99.90;;;12.57;100.00;102117.06;5138708;28;20470;-58
2022/09/21 08:21:03;;;;;;;10.20;5.30;;;12.30;99.90;;;12.85;100.00;102115.78;5136602;28;20061;-57
2022/09/21 08:23:39;;;;;;;12.13;6.45;;;12.40;99.90;;;13.20;100.00;102120.91;5128153;28;20047;-55
2022/09/21 08:26:15;;;;;;;12.35;6.57;;;12.70;99.90;;;13.61;100.00;102121.84;5123236;28;20074;-56
2022/09/21 08:28:51;;;;;;;11.45;5.90;;;12.90;99.90;;;14.12;100.00;102114.41;5122863;28;20047;-56
2022/09/21 08:31:24;;;;;;;10.85;5.13;;;13.20;99.90;;;14.95;100.00;102117.72;5123198;28;20514;-58
2022/09/21 08:33:57;;;;;;;12.52;6.25;;;13.80;99.90;;;16.08;100.00;102117.41;5132127;28;20479;-57
2022/09/21 08:36:29;;;;;;;10.27;5.43;;;14.60;99.90;;;16.87;99.65;102126.97;5146028;28;20053;-56
2022/09/21 08:39:01;;;;;;;10.73;5.22;;;15.30;99.90;;;18.04;93.82;102123.19;5145723;28;20514;-56
2022/09/21 08:41:57;;;;;;;8.90;3.88;;;16.20;99.90;;;19.40;88.30;102121.00;5146090;28;20046;-57
2022/09/21 08:44:41;;;;;;;7.45;4.03;;;17.30;99.90;;;20.38;82.72;102114.81;5144778;28;20047;-59
2022/09/21 08:47:18;;;;;;;7.88;4.05;;;18.30;98.80;;;20.96;79.47;102126.28;5145711;28;20062;-58
2022/09/21 08:49:56;;;;;;;8.40;3.75;;;19.00;97.00;;;21.34;77.26;102125.03;5145401;28;20043;-60
2022/09/21 08:52:28;;;;;;;6.85;4.05;;;19.50;95.60;;;21.55;75.52;102120.81;5145772;28;20057;-60
2022/09/21 08:55:06;;;;;;;7.18;4.00;;;19.80;94.10;;;21.53;74.95;102125.22;5145890;28;20520;-59
2022/09/21 08:57:38;;;;;;;7.20;4.10;;;20.00;93.10;;;21.26;74.37;102121.38;5144662;28;20047;-57
2022/09/21 09:00:18;;;;;;;9.82;5.03;;;20.00;92.20;;;20.79;75.56;102123.38;5145282;28;20050;-56
2022/09/21 09:03:19;;;;;;;7.22;3.85;;;19.90;92.00;;;20.28;76.80;102122.63;5146042;28;20439;-55
2022/09/21 09:05:59;;;;;;;6.40;3.53;;;19.60;91.90;;;19.97;78.21;102118.56;5145195;28;20050;-57
2022/09/21 09:08:58;;;;;;;5.45;3.65;;;19.30;92.40;;;19.68;79.27;102115.41;5138983;28;20051;-58
2022/09/21 09:11:47;;;;;;;6.57;3.40;;;19.10;92.70;;;19.51;80.08;102116.81;5141192;28;20042;-56
2022/09/21 09:14:52;;;;;;;5.63;3.08;;;18.90;92.80;;;19.44;80.32;102110.53;5130291;28;20059;-57
2022/09/21 09:17:43;;;;;;;4.70;2.92;;;18.90;93.00;;;19.45;81.59;102111.41;5144680;28;20047;-56
2022/09/21 09:20:20;;;;;;;5.30;2.80;;;18.90;93.70;;;19.52;81.75;102113.31;5125408;28;20133;-57
2022/09/21 09:23:06;;;;;;;5.88;3.38;;;18.90;93.70;;;19.47;80.95;102109.69;5125737;28;20047;-56
2022/09/21 09:25:41;;;;;;;7.03;3.15;;;18.90;93.20;;;19.51;81.88;102111.53;5128676;28;20038;-57
2022/09/21 09:28:25;;;;;;;5.93;2.70;;;18.90;93.70;;;19.60;82.02;102114.38;5145717;28;20050;-58
2022/09/21 09:31:15;;;;;;;4.78;2.45;;;19.00;93.60;;;19.74;81.01;102110.22;5145270;28;20046;-58
2022/09/21 09:33:57;;;;;;;5.75;3.05;;;19.10;93.30;;;19.78;80.73;102105.88;5145743;28;20050;-57
2022/09/21 09:36:33;;;;;;;6.38;2.80;;;19.10;93.00;;;19.75;80.12;102101.41;5145577;28;20057;-58
2022/09/21 09:39:12;;;;;;;6.07;2.60;;;19.10;92.80;;;19.71;80.90;102102.25;5145369;28;20070;-57
2022/09/21 09:42:14;;;;;;;3.75;1.90;;;19.10;93.00;;;19.78;81.70;102112.06;5145289;28;20106;-58
2022/09/21 09:45:36;;;;;;;4.82;2.10;;;19.10;93.30;;;19.89;79.75;102106.09;5144035;28;20050;-57
2022/09/21 09:48:44;;;;;;;4.15;2.30;;;19.20;92.80;;;19.91;79.07;102099.06;5138515;28;20899;-57
2022/09/21 09:51:18;;;;;;;3.60;1.83;;;19.20;92.20;;;19.98;78.41;102099.19;5145177;28;20047;-57
2022/09/21 09:53:59;;;;;;;5.25;1.80;;;19.30;92.00;;;20.02;76.59;102105.44;5145094;28;20051;-58
2022/09/21 09:56:31;;;;;;;3.70;1.45;;;19.30;91.00;;;20.09;77.48;102099.38;5145342;28;20046;-58
2022/09/21 09:59:08;;;;;;;3.25;1.40;;;19.40;91.50;;;20.03;74.96;102099.25;5143917;28;20102;-57
2022/09/21 10:01:45;;;;;;;2.45;1.33;;;19.40;90.30;;;19.96;73.10;102094.75;5144337;28;20412;-57
2022/09/21 10:04:18;;;;;;;3.17;1.67;;;19.30;88.20;;;19.90;73.71;102099.94;5145056;28;20050;-56
2022/09/21 10:06:51;;;;;;;4.53;1.58;;;19.30;88.40;;;20.01;74.46;102093.03;5144441;28;20079;-57
2022/09/21 10:09:27;;;;;;;2.20;1.40;;;19.30;88.90;;;20.12;74.65;102096.75;5144726;28;20055;-58
2022/09/21 10:12:02;;;;;;;2.42;1.40;;;19.40;89.20;;;20.29;74.79;102092.63;5144158;28;20054;-57
2022/09/21 10:14:36;;;;;;;2.72;1.50;;;19.50;89.90;;;20.45;73.10;102091.13;5144578;28;20051;-57
2022/09/21 10:17:08;;;;;;;3.38;1.20;;;19.70;88.20;;;20.41;71.23;102086.63;5143059;28;20050;-58
2022/09/21 10:19:40;;;;;;;2.75;1.17;;;19.70;85.60;;;20.43;71.05;102082.25;5143738;28;20082;-58
2022/09/21 10:22:18;;;;;;;2.88;1.30;;;19.70;85.20;;;20.49;70.74;102081.47;5144092;28;20062;-57
2022/09/21 10:24:53;;;;;;;3.70;1.40;;;19.70;84.70;;;20.57;71.17;102085.13;5144429;28;20043;-59
2022/09/21 10:27:28;;;;;;;3.88;1.27;;;19.80;85.00;;;20.64;71.35;102076.38;5143788;28;20045;-59
2022/09/21 10:30:00;;;;;;;2.30;1.40;;;19.80;84.90;;;20.77;71.58;102078.31;5143051;28;20424;-56
2022/09/21 10:32:32;;;;;;;3.95;1.10;;;20.00;85.40;;;20.86;68.62;102077.53;5144137;28;20047;-57
2022/09/21 10:35:19;;;;;;;2.90;1.00;;;20.00;82.20;;;20.90;67.80;102076.72;5143544;28;20042;-57
2022/09/21 10:38:09;;;;;;;;;;;20.10;80.80;;;20.85;66.84;102079.31;5144386;28;20050;-57
2022/09/21 10:40:45;;;;;;;3.92;1.00;;;20.20;79.60;;;20.93;66.12;102073.22;5141599;28;19929;-57
2022/09/21 10:43:28;;;;;;;2.38;0.82;;;20.20;78.40;;;20.99;65.42;102079.47;5132753;28;20043;-57
2022/09/21 10:46:00;;;;;;;1.10;0.68;;;20.30;77.50;;;21.09;66.56;102068.13;5143562;28;20066;-59
2022/09/21 10:48:32;;;;;;;3.08;0.80;;;20.40;78.40;;;21.08;63.96;102062.81;5142907;28;20042;-59
2022/09/21 10:51:05;;;;;;;1.00;0.63;;;20.40;75.30;;;20.91;64.32;102077.59;5143186;28;20047;-56
2022/09/21 10:53:38;;;;;;;1.25;0.68;;;20.30;75.40;;;20.85;64.49;102071.34;5143873;28;20046;-54
2022/09/21 10:56:18;;;;;;;1.10;0.75;;;20.20;75.20;;;20.89;64.99;102069.66;5143505;28;20054;-57